createdAt,value
2023-03-20T00:01:18.001Z,12.80
2023-03-20T00:03:46.011Z,12.90
2023-03-20T00:06:16.354Z,13.00
2023-03-20T00:08:46.675Z,12.90
2023-03-20T00:11:26.903Z,12.80
2023-03-20T00:13:55.063Z,12.80
2023-03-20T00:16:25.196Z,12.90
2023-03-20T00:18:56.369Z,12.80
2023-03-20T00:21:24.669Z,12.80
2023-03-20T00:23:52.671Z,12.80
2023-03-20T00:26:20.716Z,12.70
2023-03-20T00:28:49.245Z,12.70
2023-03-20T00:31:21.653Z,12.60
2023-03-20T00:33:51.109Z,12.50
2023-03-20T00:36:19.111Z,12.60
2023-03-20T00:38:47.334Z,12.50
2023-03-20T00:41:26.539Z,12.50
2023-03-20T00:43:56.450Z,12.40
2023-03-20T00:46:24.811Z,12.40
2023-03-20T00:48:54.818Z,12.30
2023-03-20T00:51:24.218Z,12.30
2023-03-20T00:53:53.056Z,12.10
2023-03-20T00:56:31.144Z,11.90
2023-03-20T00:59:04.925Z,11.70
2023-03-20T01:01:33.164Z,11.60
2023-03-20T01:04:02.729Z,11.60
2023-03-20T01:06:31.375Z,11.80
2023-03-20T01:09:00.081Z,11.80
2023-03-20T01:11:28.647Z,11.90
2023-03-20T01:13:57.230Z,11.90
2023-03-20T01:16:27.016Z,11.90
2023-03-20T01:18:55.066Z,12.00
2023-03-20T01:21:24.412Z,12.20
2023-03-20T01:23:52.425Z,12.10
2023-03-20T01:26:23.305Z,12.30
2023-03-20T01:28:51.203Z,12.30
2023-03-20T01:31:20.397Z,12.20
2023-03-20T01:33:48.702Z,12.30
2023-03-20T01:36:18.705Z,12.30
2023-03-20T01:38:48.933Z,12.20
2023-03-20T01:41:18.591Z,12.00
2023-03-20T01:43:46.978Z,11.90
2023-03-20T01:46:18.425Z,11.80
2023-03-20T01:49:11.523Z,11.90
2023-03-20T01:51:39.544Z,11.90
2023-03-20T01:54:16.385Z,11.90
2023-03-20T01:57:16.157Z,11.80
2023-03-20T01:59:46.990Z,11.70
2023-03-20T02:02:15.434Z,11.70
2023-03-20T02:04:45.883Z,11.70
2023-03-20T02:07:17.889Z,11.80
2023-03-20T02:09:54.628Z,11.80
2023-03-20T02:12:32.678Z,11.90
2023-03-20T02:15:01.233Z,11.90
2023-03-20T02:17:48.673Z,11.80
2023-03-20T02:20:27.486Z,11.90
2023-03-20T02:23:10.357Z,11.90
2023-03-20T02:26:00.589Z,12.00
2023-03-20T02:28:40.237Z,11.80
2023-03-20T02:31:18.991Z,11.80
2023-03-20T02:34:06.946Z,11.90
2023-03-20T02:36:50.984Z,11.80
2023-03-20T02:39:33.875Z,11.80
2023-03-20T02:42:06.590Z,11.80
2023-03-20T02:44:39.106Z,11.80
2023-03-20T02:47:11.209Z,11.90
2023-03-20T02:49:46.998Z,11.90
2023-03-20T02:52:18.011Z,11.90
2023-03-20T02:54:52.029Z,11.80
2023-03-20T02:57:24.670Z,11.70
2023-03-20T02:59:55.588Z,11.60
2023-03-20T03:02:26.154Z,11.60
2023-03-20T03:04:57.844Z,11.50
2023-03-20T03:07:28.243Z,11.50
2023-03-20T03:10:00.693Z,11.50
2023-03-20T03:12:31.250Z,11.60
2023-03-20T03:15:02.343Z,11.50
2023-03-20T03:17:34.293Z,11.60
2023-03-20T03:20:15.832Z,11.50
2023-03-20T03:22:45.552Z,11.40
2023-03-20T03:25:14.869Z,11.40
2023-03-20T03:27:45.968Z,11.40
2023-03-20T03:30:27.147Z,11.40
2023-03-20T03:33:08.218Z,11.30
2023-03-20T03:35:37.037Z,11.30
2023-03-20T03:38:09.267Z,11.20
2023-03-20T03:40:42.203Z,11.10
2023-03-20T03:43:14.679Z,11.10
2023-03-20T03:45:47.616Z,11.10
2023-03-20T03:48:18.002Z,11.10
2023-03-20T03:50:49.457Z,11.30
2023-03-20T03:53:20.917Z,11.30
2023-03-20T03:55:50.821Z,11.30
2023-03-20T03:58:22.350Z,11.30
2023-03-20T04:00:52.913Z,11.40
2023-03-20T04:03:23.862Z,11.20
2023-03-20T04:05:53.102Z,11.20
2023-03-20T04:08:21.713Z,11.20
2023-03-20T04:10:49.696Z,11.20
2023-03-20T04:13:26.103Z,11.20
2023-03-20T04:15:54.181Z,11.20
2023-03-20T04:18:22.611Z,11.20
2023-03-20T04:20:51.934Z,11.20
2023-03-20T04:23:20.711Z,11.20
2023-03-20T04:25:48.935Z,11.20
2023-03-20T04:28:17.322Z,11.20
2023-03-20T04:30:59.796Z,11.20
2023-03-20T04:33:54.299Z,11.30
2023-03-20T04:36:36.915Z,11.20
2023-03-20T04:39:07.334Z,11.20
2023-03-20T04:41:35.572Z,11.20
2023-03-20T04:44:04.115Z,11.20
2023-03-20T04:46:35.020Z,11.10
2023-03-20T04:49:07.232Z,11.10
2023-03-20T04:51:35.546Z,11.10
2023-03-20T04:54:03.892Z,11.10
2023-03-20T04:56:32.723Z,11.10
2023-03-20T04:59:16.745Z,11.10
2023-03-20T05:01:46.386Z,11.10
2023-03-20T05:04:14.648Z,11.00
2023-03-20T05:06:43.903Z,11.00
2023-03-20T05:09:11.985Z,11.00
2023-03-20T05:11:40.169Z,11.10
2023-03-20T05:14:37.291Z,11.10
2023-03-20T05:17:27.629Z,11.10
2023-03-20T05:20:07.862Z,11.20
2023-03-20T05:22:43.903Z,11.00
2023-03-20T05:25:18.533Z,11.10
2023-03-20T05:28:00.520Z,11.10
2023-03-20T05:30:34.730Z,11.20
2023-03-20T05:33:29.235Z,11.10
2023-03-20T05:36:35.540Z,11.10
2023-03-20T05:39:22.331Z,11.10
2023-03-20T05:42:09.200Z,11.20
2023-03-20T05:44:57.628Z,11.20
2023-03-20T05:47:26.364Z,11.10
2023-03-20T05:50:14.313Z,11.20
2023-03-20T05:52:56.625Z,11.20
2023-03-20T05:55:59.729Z,11.30
2023-03-20T05:58:46.634Z,11.30
2023-03-20T06:01:31.908Z,11.30
2023-03-20T06:04:24.411Z,11.40
2023-03-20T06:07:13.729Z,11.40
2023-03-20T06:09:47.922Z,11.30
2023-03-20T06:12:16.421Z,11.10
2023-03-20T06:14:44.600Z,11.00
2023-03-20T06:17:13.119Z,11.00
2023-03-20T06:19:42.053Z,10.80
2023-03-20T06:22:10.060Z,11.00
2023-03-20T06:24:39.376Z,11.10
2023-03-20T06:27:07.612Z,11.20
2023-03-20T06:29:36.608Z,11.20
2023-03-20T06:32:27.716Z,11.20
2023-03-20T06:34:59.071Z,11.20
2023-03-20T06:37:28.934Z,11.20
2023-03-20T06:40:06.893Z,11.20
2023-03-20T06:42:37.824Z,11.20
2023-03-20T06:45:08.160Z,11.20
2023-03-20T06:47:42.931Z,11.30
2023-03-20T06:50:11.560Z,11.20
2023-03-20T06:52:39.826Z,11.30
2023-03-20T06:55:29.469Z,11.30
2023-03-20T06:57:57.965Z,11.10
2023-03-20T07:00:29.817Z,11.00
2023-03-20T07:03:01.070Z,11.10
2023-03-20T07:05:30.148Z,11.10
2023-03-20T07:07:59.859Z,11.00
2023-03-20T07:10:29.618Z,11.00
2023-03-20T07:12:58.974Z,11.00
2023-03-20T07:15:27.356Z,11.10
2023-03-20T07:17:55.903Z,11.20
2023-03-20T07:20:24.183Z,11.30
2023-03-20T07:22:52.783Z,11.30
2023-03-20T07:25:41.312Z,11.40
2023-03-20T07:28:15.053Z,11.40
2023-03-20T07:30:48.888Z,11.50
2023-03-20T07:33:18.272Z,11.50
2023-03-20T07:35:47.055Z,11.50
2023-03-20T07:38:15.351Z,11.40
2023-03-20T07:40:55.025Z,11.40
2023-03-20T07:43:24.546Z,11.40
2023-03-20T07:46:11.201Z,11.40
2023-03-20T07:48:39.940Z,11.30
2023-03-20T07:51:08.392Z,11.30
2023-03-20T07:53:36.997Z,11.40
2023-03-20T07:56:06.674Z,11.50
2023-03-20T07:58:36.169Z,11.70
2023-03-20T08:01:04.683Z,11.70
2023-03-20T08:03:32.873Z,11.80
2023-03-20T08:06:01.778Z,11.90
2023-03-20T08:08:30.704Z,11.90
2023-03-20T08:10:58.875Z,12.00
2023-03-20T08:13:26.840Z,12.10
2023-03-20T08:15:56.616Z,12.10
2023-03-20T08:18:24.607Z,12.10
2023-03-20T08:20:52.590Z,12.10
2023-03-20T08:23:21.065Z,12.10
2023-03-20T08:25:49.670Z,12.10
2023-03-20T08:28:17.941Z,12.10
2023-03-20T08:30:48.189Z,12.10
2023-03-20T08:33:18.995Z,11.90
2023-03-20T08:35:55.878Z,12.10
2023-03-20T08:38:24.080Z,12.10
2023-03-20T08:40:52.150Z,12.10
2023-03-20T08:43:20.226Z,12.20
2023-03-20T08:45:48.234Z,12.20
2023-03-20T08:48:16.296Z,12.30
2023-03-20T08:50:46.366Z,12.30
2023-03-20T08:53:14.799Z,12.30
2023-03-20T08:55:42.815Z,12.20
2023-03-20T08:58:10.836Z,12.20
2023-03-20T09:00:39.039Z,12.20
2023-03-20T09:03:07.409Z,12.30
2023-03-20T09:05:37.827Z,12.40
2023-03-20T09:08:07.439Z,12.20
2023-03-20T09:10:35.658Z,12.10
2023-03-20T09:13:12.576Z,12.00
2023-03-20T09:15:51.795Z,12.10
2023-03-20T09:18:21.031Z,12.00
2023-03-20T09:20:49.544Z,11.90
2023-03-20T09:23:19.096Z,11.90
2023-03-20T09:25:48.526Z,12.10
2023-03-20T09:28:16.659Z,12.20
2023-03-20T09:30:45.912Z,12.20
2023-03-20T09:33:15.474Z,12.20
2023-03-20T09:35:43.961Z,12.20
2023-03-20T09:38:13.671Z,12.10
2023-03-20T09:40:49.675Z,12.20
2023-03-20T09:43:21.043Z,12.30
2023-03-20T09:45:52.838Z,12.30
2023-03-20T09:48:24.350Z,12.30
2023-03-20T09:50:55.766Z,12.20
2023-03-20T09:53:28.507Z,12.40
2023-03-20T09:55:58.148Z,12.60
2023-03-20T09:58:27.301Z,12.50
2023-03-20T10:00:57.640Z,12.70
2023-03-20T10:03:28.071Z,13.00
2023-03-20T10:05:59.090Z,13.10
2023-03-20T10:08:28.750Z,13.00
2023-03-20T10:11:05.377Z,13.00
2023-03-20T10:13:41.952Z,13.00
2023-03-20T10:16:14.835Z,13.00
2023-03-20T10:18:46.990Z,13.20
2023-03-20T10:21:18.698Z,13.50
2023-03-20T10:23:50.745Z,13.60
2023-03-20T10:26:22.755Z,13.80
2023-03-20T10:28:53.854Z,14.00
2023-03-20T10:31:33.148Z,13.90
2023-03-20T10:34:07.101Z,13.90
2023-03-20T10:36:43.118Z,13.80
2023-03-20T10:39:14.165Z,13.80
2023-03-20T10:41:46.681Z,13.90
2023-03-20T10:44:17.587Z,14.20
2023-03-20T10:46:47.891Z,14.40
2023-03-20T10:49:18.267Z,14.40
2023-03-20T10:51:48.277Z,14.40
2023-03-20T10:54:22.341Z,14.30
2023-03-20T10:56:55.853Z,14.30
2023-03-20T10:59:25.430Z,14.30
2023-03-20T11:01:53.520Z,14.50
2023-03-20T11:04:22.124Z,14.60
2023-03-20T11:06:54.122Z,14.40
2023-03-20T11:09:24.750Z,14.40
2023-03-20T11:11:57.246Z,14.40
2023-03-20T11:14:26.265Z,14.40
2023-03-20T11:16:55.272Z,14.20
2023-03-20T11:19:24.602Z,14.20
2023-03-20T11:21:53.472Z,14.20
2023-03-20T11:24:28.740Z,14.50
2023-03-20T11:27:06.120Z,14.60
2023-03-20T11:29:35.878Z,14.80
2023-03-20T11:32:08.712Z,14.90
2023-03-20T11:34:38.423Z,15.00
2023-03-20T11:37:10.939Z,15.20
2023-03-20T11:39:41.246Z,15.30
2023-03-20T11:42:23.537Z,15.20
2023-03-20T11:44:58.122Z,15.20
2023-03-20T11:47:27.448Z,15.30
2023-03-20T11:49:56.044Z,15.30
2023-03-20T11:52:25.273Z,15.40
2023-03-20T11:54:54.555Z,15.40
2023-03-20T11:57:31.183Z,15.40
2023-03-20T12:00:02.783Z,15.40
2023-03-20T12:02:32.720Z,15.40
2023-03-20T12:05:01.197Z,15.50
2023-03-20T12:07:31.339Z,15.60
2023-03-20T12:10:00.871Z,15.50
2023-03-20T12:12:35.946Z,15.40
2023-03-20T12:15:07.787Z,15.50
2023-03-20T12:17:44.949Z,15.30
2023-03-20T12:20:16.091Z,15.10
2023-03-20T12:22:49.106Z,15.00
2023-03-20T12:25:21.080Z,15.00
2023-03-20T12:27:53.956Z,15.10
2023-03-20T12:30:27.102Z,15.20
2023-03-20T12:32:57.787Z,15.40
2023-03-20T12:35:28.427Z,15.50
2023-03-20T12:37:56.538Z,15.40
2023-03-20T12:40:30.340Z,15.40
2023-03-20T12:43:04.798Z,15.50
2023-03-20T12:45:34.687Z,15.60
2023-03-20T12:48:19.519Z,15.60
2023-03-20T12:50:52.040Z,15.70
2023-03-20T12:53:29.264Z,15.60
2023-03-20T12:56:03.445Z,15.60
2023-03-20T12:58:38.046Z,15.60
2023-03-20T13:01:07.770Z,15.70
2023-03-20T13:03:46.836Z,15.70
2023-03-20T13:06:16.151Z,15.70
2023-03-20T13:09:01.090Z,15.80
2023-03-20T13:11:32.043Z,15.80
2023-03-20T13:14:04.208Z,15.90
2023-03-20T13:16:38.817Z,15.90
2023-03-20T13:19:10.884Z,15.80
2023-03-20T13:21:40.929Z,15.80
2023-03-20T13:24:23.761Z,15.80
2023-03-20T13:26:56.307Z,15.80
2023-03-20T13:29:29.373Z,16.00
2023-03-20T13:32:00.158Z,16.10
2023-03-20T13:34:32.845Z,16.20
2023-03-20T13:37:23.004Z,16.40
2023-03-20T13:39:58.756Z,16.40
2023-03-20T13:42:30.403Z,16.60
2023-03-20T13:45:02.562Z,16.60
2023-03-20T13:47:32.073Z,16.60
2023-03-20T13:50:05.411Z,16.60
2023-03-20T13:52:37.612Z,16.50
2023-03-20T13:55:16.943Z,16.50
2023-03-20T13:57:49.552Z,16.30
2023-03-20T14:00:25.042Z,15.90
2023-03-20T14:03:04.926Z,15.90
2023-03-20T14:05:37.000Z,15.90
2023-03-20T14:08:19.832Z,15.90
2023-03-20T14:10:48.818Z,16.00
2023-03-20T14:13:18.802Z,16.00
2023-03-20T14:15:51.877Z,16.10
2023-03-20T14:18:19.984Z,16.00
2023-03-20T14:20:53.471Z,16.00
2023-03-20T14:23:25.493Z,15.90
2023-03-20T14:25:55.824Z,15.80
2023-03-20T14:28:27.222Z,15.80
2023-03-20T14:31:10.104Z,15.80
2023-03-20T14:33:44.363Z,15.80
2023-03-20T14:36:13.829Z,15.70
2023-03-20T14:38:50.233Z,15.70
2023-03-20T14:41:24.803Z,15.70
2023-03-20T14:43:58.733Z,15.70
2023-03-20T14:46:32.261Z,15.50
2023-03-20T14:49:03.702Z,15.50
2023-03-20T14:51:38.596Z,15.40
2023-03-20T14:54:30.959Z,15.50
2023-03-20T14:57:09.941Z,15.60
2023-03-20T14:59:38.505Z,15.60
2023-03-20T15:02:07.015Z,15.60
2023-03-20T15:04:40.493Z,15.60
2023-03-20T15:07:13.062Z,15.50
2023-03-20T15:09:43.570Z,15.60
2023-03-20T15:12:13.361Z,15.70
2023-03-20T15:14:45.381Z,15.60
2023-03-20T15:17:20.894Z,15.60
2023-03-20T15:19:50.440Z,15.50
2023-03-20T15:22:32.523Z,15.50
2023-03-20T15:25:00.637Z,15.60
2023-03-20T15:27:30.709Z,15.60
2023-03-20T15:30:01.238Z,15.50
2023-03-20T15:32:29.799Z,15.40
2023-03-20T15:34:59.282Z,15.50
2023-03-20T15:37:28.044Z,15.40
2023-03-20T15:39:59.073Z,15.40
2023-03-20T15:42:27.611Z,15.50
2023-03-20T15:44:56.402Z,15.60
2023-03-20T15:47:24.917Z,15.70
2023-03-20T15:49:54.025Z,15.50
2023-03-20T15:52:26.904Z,15.20
2023-03-20T15:54:55.509Z,15.20
2023-03-20T15:57:26.432Z,15.10
2023-03-20T15:59:54.606Z,15.10
2023-03-20T16:02:22.668Z,15.00
2023-03-20T16:04:54.505Z,15.10
2023-03-20T16:07:25.125Z,15.10
2023-03-20T16:09:53.108Z,15.20
2023-03-20T16:12:21.113Z,15.20
2023-03-20T16:14:50.442Z,15.20
2023-03-20T16:17:19.105Z,15.20
2023-03-20T16:19:47.163Z,15.30
2023-03-20T16:22:21.582Z,15.30
2023-03-20T16:24:55.572Z,15.30
2023-03-20T16:27:29.165Z,15.50
2023-03-20T16:29:57.497Z,15.30
2023-03-20T16:32:28.745Z,15.10
2023-03-20T16:34:58.062Z,15.10
2023-03-20T16:37:27.393Z,15.00
2023-03-20T16:40:13.450Z,15.00
2023-03-20T16:42:44.788Z,15.00
2023-03-20T16:45:18.564Z,15.10
2023-03-20T16:47:48.932Z,15.20
2023-03-20T16:50:18.812Z,15.40
2023-03-20T16:52:47.953Z,15.50
2023-03-20T16:55:17.549Z,15.50
2023-03-20T16:57:49.634Z,15.50
2023-03-20T17:00:22.619Z,15.50
2023-03-20T17:02:51.979Z,15.50
2023-03-20T17:05:21.902Z,15.40
2023-03-20T17:07:51.122Z,15.20
2023-03-20T17:10:21.634Z,15.30
2023-03-20T17:12:52.885Z,15.40
2023-03-20T17:15:21.968Z,15.40
2023-03-20T17:17:50.134Z,15.60
2023-03-20T17:20:19.949Z,15.60
2023-03-20T17:22:48.417Z,15.60
2023-03-20T17:25:16.557Z,15.60
2023-03-20T17:27:45.019Z,15.60
2023-03-20T17:30:19.394Z,15.60
2023-03-20T17:32:47.904Z,15.60
2023-03-20T17:35:15.956Z,15.70
2023-03-20T17:37:44.113Z,15.80
2023-03-20T17:40:17.606Z,15.70
2023-03-20T17:42:46.042Z,15.80
2023-03-20T17:45:14.894Z,15.90
2023-03-20T17:47:44.962Z,15.90
2023-03-20T17:50:18.042Z,15.90
2023-03-20T17:52:46.270Z,15.80
2023-03-20T17:55:15.698Z,15.80
2023-03-20T17:57:43.987Z,15.70
2023-03-20T18:00:16.500Z,15.50
2023-03-20T18:02:46.091Z,15.50
2023-03-20T18:05:14.160Z,15.50
2023-03-20T18:07:42.235Z,15.60
2023-03-20T18:10:16.472Z,15.70
2023-03-20T18:12:45.278Z,15.80
2023-03-20T18:15:13.284Z,15.70
2023-03-20T18:17:41.319Z,15.60
2023-03-20T18:20:17.674Z,15.70
2023-03-20T18:22:46.019Z,15.80
2023-03-20T18:25:13.971Z,15.70
2023-03-20T18:27:43.100Z,15.80
2023-03-20T18:30:15.069Z,15.80
2023-03-20T18:32:43.199Z,15.70
2023-03-20T18:35:11.877Z,15.60
2023-03-20T18:37:59.774Z,15.60
2023-03-20T18:40:30.229Z,15.60
2023-03-20T18:42:58.680Z,15.80
2023-03-20T18:45:28.224Z,16.00
2023-03-20T18:47:56.742Z,16.00
2023-03-20T18:50:25.725Z,16.10
2023-03-20T18:52:54.054Z,15.90
2023-03-20T18:55:24.036Z,15.80
2023-03-20T18:57:53.092Z,16.00
2023-03-20T19:00:23.027Z,15.90
2023-03-20T19:02:51.468Z,16.00
2023-03-20T19:05:20.204Z,16.00
2023-03-20T19:07:48.574Z,15.90
2023-03-20T19:10:28.748Z,15.70
2023-03-20T19:12:57.192Z,15.30
2023-03-20T19:15:26.129Z,15.20
2023-03-20T19:17:54.074Z,15.10
2023-03-20T19:20:30.671Z,15.30
2023-03-20T19:22:58.825Z,15.20
2023-03-20T19:25:47.977Z,15.20
2023-03-20T19:28:21.752Z,15.10
2023-03-20T19:30:51.889Z,15.20
2023-03-20T19:33:20.276Z,15.10
2023-03-20T19:36:04.687Z,15.10
2023-03-20T19:38:33.172Z,15.10
2023-03-20T19:41:03.775Z,15.10
2023-03-20T19:43:32.411Z,15.30
2023-03-20T19:46:00.882Z,15.30
2023-03-20T19:48:46.876Z,15.20
2023-03-20T19:51:19.214Z,15.00
2023-03-20T19:53:47.563Z,14.90
2023-03-20T19:56:17.597Z,14.80
2023-03-20T19:58:45.755Z,14.70
2023-03-20T20:01:16.018Z,14.70
2023-03-20T20:03:44.274Z,14.70
2023-03-20T20:06:12.437Z,14.60
2023-03-20T20:08:48.500Z,14.70
2023-03-20T20:11:19.145Z,14.60
2023-03-20T20:16:36.614Z,14.60
2023-03-20T20:19:05.240Z,14.50
2023-03-20T20:24:21.659Z,14.70
2023-03-20T20:27:03.518Z,14.60
2023-03-20T20:29:39.383Z,14.60
2023-03-20T20:32:07.512Z,14.60
2023-03-20T20:40:13.441Z,15.10
2023-03-20T20:42:43.586Z,15.10
2023-03-20T20:45:12.783Z,15.20
2023-03-20T20:47:41.596Z,14.90
2023-03-20T20:50:11.732Z,14.70
2023-03-20T20:52:41.719Z,14.70
2023-03-20T20:55:22.016Z,14.50
2023-03-20T20:57:52.035Z,14.40
2023-03-20T21:00:27.453Z,14.40
2023-03-20T21:02:59.801Z,14.50
2023-03-20T21:05:28.269Z,14.70
2023-03-20T21:07:57.865Z,14.60
2023-03-20T21:10:26.002Z,14.60
2023-03-20T21:12:59.642Z,14.50
2023-03-20T21:15:29.158Z,14.30
2023-03-20T21:18:01.612Z,14.30
2023-03-20T21:20:30.117Z,14.40
2023-03-20T21:22:58.281Z,14.40
2023-03-20T21:25:39.080Z,14.50
2023-03-20T21:28:11.311Z,14.50
2023-03-20T21:30:46.837Z,14.60
2023-03-20T21:33:24.946Z,14.60
2023-03-20T21:35:54.000Z,14.60
2023-03-20T21:38:58.636Z,14.50
2023-03-20T21:41:11.421Z,14.30
2023-03-20T21:43:40.862Z,14.50
2023-03-20T21:58:09.729Z,14.00
2023-03-20T22:03:09.099Z,14.40
2023-03-20T22:17:50.981Z,14.60
2023-03-20T22:28:53.880Z,13.90
2023-03-20T22:31:34.503Z,13.80
2023-03-20T22:37:29.323Z,13.80
2023-03-20T22:40:21.706Z,13.70
2023-03-20T22:45:03.265Z,14.00
2023-03-20T22:47:31.919Z,13.90
2023-03-20T22:50:01.539Z,13.90
2023-03-20T22:52:41.992Z,13.80
2023-03-20T22:55:13.856Z,13.80
2023-03-20T22:57:50.118Z,13.70
2023-03-20T23:00:24.359Z,13.70
2023-03-20T23:02:54.940Z,13.80
2023-03-20T23:05:27.000Z,13.70
2023-03-20T23:07:55.026Z,13.70
2023-03-20T23:10:23.079Z,13.70
2023-03-20T23:12:51.166Z,13.70
2023-03-20T23:15:19.197Z,13.60
2023-03-20T23:17:47.642Z,13.70
2023-03-20T23:20:20.968Z,13.70
2023-03-20T23:22:50.928Z,13.70
2023-03-20T23:25:36.325Z,13.70
2023-03-20T23:28:07.195Z,13.70
2023-03-20T23:30:46.756Z,13.90
2023-03-20T23:33:17.737Z,13.80
2023-03-20T23:35:46.257Z,13.80
2023-03-20T23:38:15.926Z,13.60
2023-03-20T23:40:49.062Z,13.70
2023-03-20T23:43:17.045Z,13.70
2023-03-20T23:45:45.388Z,13.80
2023-03-20T23:48:13.848Z,13.70
2023-03-20T23:50:52.147Z,13.60
2023-03-20T23:53:23.538Z,13.60
2023-03-20T23:55:55.149Z,13.60
2023-03-20T23:58:23.998Z,13.60
